createdAt,value
2022-08-04T00:00:59.214Z,15.61
2022-08-04T00:01:59.242Z,15.61
2022-08-04T00:02:59.212Z,15.61
2022-08-04T00:03:59.215Z,15.61
2022-08-04T00:04:59.217Z,15.61
2022-08-04T00:05:59.222Z,15.44
2022-08-04T00:06:59.228Z,15.44
2022-08-04T00:07:59.225Z,15.44
2022-08-04T00:08:59.227Z,15.28
2022-08-04T00:09:59.229Z,15.61
2022-08-04T00:10:59.221Z,15.44
2022-08-04T00:11:59.231Z,15.44
2022-08-04T00:12:59.228Z,15.61
2022-08-04T00:14:03.392Z,15.44
2022-08-04T00:14:59.228Z,15.17
2022-08-04T00:15:59.246Z,15.17
2022-08-04T00:16:59.232Z,15.17
2022-08-04T00:17:59.241Z,15.17
2022-08-04T00:18:59.233Z,15.17
2022-08-04T00:19:59.244Z,14.89
2022-08-04T00:20:59.239Z,14.89
2022-08-04T00:21:59.226Z,14.89
2022-08-04T00:22:59.241Z,15.06
2022-08-04T00:24:11.317Z,14.78
2022-08-04T00:24:59.237Z,15.17
2022-08-04T00:25:59.241Z,14.89
2022-08-04T00:26:59.256Z,15.17
2022-08-04T00:27:59.254Z,15.17
2022-08-04T00:28:59.249Z,15.17
2022-08-04T00:29:59.247Z,15.06
2022-08-04T00:30:59.246Z,14.89
2022-08-04T00:31:59.254Z,14.89
2022-08-04T00:32:59.265Z,14.78
2022-08-04T00:33:59.262Z,15.06
2022-08-04T00:34:59.261Z,14.78
2022-08-04T00:35:59.251Z,14.78
2022-08-04T00:36:59.269Z,14.78
2022-08-04T00:37:59.260Z,15.06
2022-08-04T00:38:59.300Z,15.06
2022-08-04T00:39:59.262Z,14.89
2022-08-04T00:40:59.279Z,15.17
2022-08-04T00:41:59.266Z,15.17
2022-08-04T00:42:59.654Z,14.78
2022-08-04T00:43:59.268Z,14.61
2022-08-04T00:44:59.273Z,15.17
2022-08-04T00:46:15.089Z,15.06
2022-08-04T00:46:59.277Z,15.06
2022-08-04T00:47:59.282Z,15.17
2022-08-04T00:48:59.278Z,15.17
2022-08-04T00:49:59.279Z,15.17
2022-08-04T00:50:59.276Z,15.17
2022-08-04T00:52:31.045Z,15.06
2022-08-04T00:52:59.281Z,14.89
2022-08-04T00:53:59.286Z,14.61
2022-08-04T00:54:59.289Z,14.78
2022-08-04T00:55:59.276Z,14.78
2022-08-04T00:56:59.276Z,14.78
2022-08-04T00:57:59.282Z,14.61
2022-08-04T00:58:59.286Z,14.28
2022-08-04T00:59:59.286Z,14.78
2022-08-04T01:00:59.332Z,15.06
2022-08-04T01:01:59.280Z,15.06
2022-08-04T01:02:59.289Z,15.17
2022-08-04T01:03:59.288Z,15.06
2022-08-04T01:04:59.294Z,15.17
2022-08-04T01:05:59.291Z,15.06
2022-08-04T01:06:59.283Z,15.17
2022-08-04T01:07:59.296Z,15.17
2022-08-04T01:08:59.291Z,15.17
2022-08-04T01:09:59.297Z,15.17
2022-08-04T01:10:59.299Z,15.17
2022-08-04T01:11:59.300Z,15.17
2022-08-04T01:12:59.298Z,15.28
2022-08-04T01:13:59.311Z,15.17
2022-08-04T01:14:59.300Z,15.28
2022-08-04T01:16:00.265Z,15.28
2022-08-04T01:16:59.302Z,15.44
2022-08-04T01:17:59.303Z,15.17
2022-08-04T01:18:59.309Z,15.44
2022-08-04T01:19:59.316Z,15.17
2022-08-04T01:20:59.303Z,15.17
2022-08-04T01:21:59.312Z,14.89
2022-08-04T01:22:59.306Z,14.78
2022-08-04T01:23:59.318Z,14.44
2022-08-04T01:24:59.322Z,14.44
2022-08-04T01:25:59.314Z,14
2022-08-04T01:26:59.319Z,14.28
2022-08-04T01:27:59.319Z,14
2022-08-04T01:28:59.321Z,14.11
2022-08-04T01:29:59.324Z,14.11
2022-08-04T01:30:59.329Z,14.11
2022-08-04T01:31:59.329Z,14.28
2022-08-04T01:32:59.331Z,14.28
2022-08-04T01:34:03.518Z,14.11
2022-08-04T01:34:59.319Z,13.83
2022-08-04T01:35:59.385Z,13.83
2022-08-04T01:36:59.369Z,14.11
2022-08-04T01:37:59.334Z,14.28
2022-08-04T01:38:59.383Z,14.28
2022-08-04T01:39:59.350Z,14.28
2022-08-04T01:40:59.342Z,14.28
2022-08-04T01:41:59.340Z,14.28
2022-08-04T01:42:59.338Z,14.28
2022-08-04T01:43:59.347Z,14.78
2022-08-04T01:44:59.347Z,14.28
2022-08-04T01:45:59.346Z,14.28
2022-08-04T01:46:59.339Z,14.28
2022-08-04T01:47:59.344Z,14.44
2022-08-04T01:48:59.344Z,14.28
2022-08-04T01:49:59.348Z,14.28
2022-08-04T01:50:59.351Z,14.28
2022-08-04T01:51:59.356Z,14.28
2022-08-04T01:52:59.343Z,14.28
2022-08-04T01:53:59.351Z,14.28
2022-08-04T01:54:59.358Z,14.11
2022-08-04T01:55:59.354Z,14.11
2022-08-04T01:56:59.354Z,14.28
2022-08-04T01:57:59.358Z,14.11
2022-08-04T01:58:59.353Z,14.11
2022-08-04T01:59:59.356Z,14
2022-08-04T02:00:59.424Z,14
2022-08-04T02:01:59.474Z,14
2022-08-04T02:02:59.431Z,14.44
2022-08-04T02:04:18.992Z,14.28
2022-08-04T02:04:59.376Z,14.11
2022-08-04T02:06:02.684Z,14.28
2022-08-04T02:06:59.378Z,14.28
2022-08-04T02:07:59.371Z,14.11
2022-08-04T02:08:59.368Z,14.28
2022-08-04T02:09:59.371Z,14.28
2022-08-04T02:10:59.371Z,14.11
2022-08-04T02:11:59.374Z,14.11
2022-08-04T02:12:59.379Z,14.11
2022-08-04T02:13:59.364Z,14.11
2022-08-04T02:14:59.377Z,14.11
2022-08-04T02:15:59.383Z,14.28
2022-08-04T02:16:59.376Z,14.11
2022-08-04T02:17:59.380Z,14.28
2022-08-04T02:18:59.379Z,14
2022-08-04T02:19:59.378Z,13.83
2022-08-04T02:20:59.384Z,13.83
2022-08-04T02:21:59.410Z,13.83
2022-08-04T02:22:59.388Z,13.67
2022-08-04T02:23:59.399Z,13.67
2022-08-04T02:24:59.389Z,14.28
2022-08-04T02:25:59.380Z,14.28
2022-08-04T02:26:59.388Z,14.11
2022-08-04T02:28:00.929Z,14.11
2022-08-04T02:28:59.393Z,14.11
2022-08-04T02:29:59.391Z,14
2022-08-04T02:30:59.385Z,14
2022-08-04T02:31:59.399Z,14
2022-08-04T02:32:59.391Z,13.83
2022-08-04T02:33:59.404Z,13.83
2022-08-04T02:34:59.395Z,13.67
2022-08-04T02:35:59.393Z,13.83
2022-08-04T02:36:59.399Z,13.56
2022-08-04T02:37:59.395Z,13.56
2022-08-04T02:38:59.450Z,13.67
2022-08-04T02:39:59.406Z,13.83
2022-08-04T02:41:00.154Z,14
2022-08-04T02:41:59.395Z,13.83
2022-08-04T02:42:59.401Z,13.56
2022-08-04T02:43:59.401Z,13.39
2022-08-04T02:44:59.408Z,13.39
2022-08-04T02:45:59.407Z,13.39
2022-08-04T02:46:59.414Z,13.39
2022-08-04T02:48:08.343Z,13.39
2022-08-04T02:48:59.407Z,13.22
2022-08-04T02:49:59.430Z,13.22
2022-08-04T02:50:59.415Z,13.22
2022-08-04T02:51:59.417Z,13.22
2022-08-04T02:52:59.415Z,13.22
2022-08-04T02:53:59.418Z,13.39
2022-08-04T02:54:59.422Z,13.22
2022-08-04T02:55:59.418Z,13.39
2022-08-04T02:56:59.411Z,13.39
2022-08-04T02:57:59.427Z,13.39
2022-08-04T02:58:59.431Z,13.56
2022-08-04T02:59:59.451Z,13.39
2022-08-04T03:00:59.476Z,13.39
2022-08-04T03:01:59.428Z,13.39
2022-08-04T03:02:59.423Z,13.56
2022-08-04T03:03:59.421Z,13.67
2022-08-04T03:04:59.428Z,13.56
2022-08-04T03:06:00.882Z,13.67
2022-08-04T03:06:59.418Z,13.39
2022-08-04T03:07:59.436Z,13.67
2022-08-04T03:08:59.430Z,13.56
2022-08-04T03:09:59.432Z,13.22
2022-08-04T03:10:59.422Z,13.39
2022-08-04T03:11:59.420Z,13.39
2022-08-04T03:12:59.427Z,13.67
2022-08-04T03:13:59.433Z,13.39
2022-08-04T03:14:59.433Z,13.56
2022-08-04T03:15:59.431Z,13.56
2022-08-04T03:16:59.438Z,13.39
2022-08-04T03:17:59.436Z,13.39
2022-08-04T03:18:59.436Z,13.39
2022-08-04T03:19:59.441Z,13.22
2022-08-04T03:20:59.432Z,13.22
2022-08-04T03:21:59.434Z,13.22
2022-08-04T03:23:12.886Z,13.39
2022-08-04T03:23:59.430Z,12.94
2022-08-04T03:24:59.439Z,13.39
2022-08-04T03:25:59.445Z,13.22
2022-08-04T03:26:59.439Z,13.22
2022-08-04T03:27:59.447Z,13.39
2022-08-04T03:28:59.437Z,13.22
2022-08-04T03:29:59.444Z,13.39
2022-08-04T03:30:59.449Z,13.22
2022-08-04T03:31:59.437Z,13.22
2022-08-04T03:32:59.445Z,12.61
2022-08-04T03:33:59.452Z,12.78
2022-08-04T03:34:59.445Z,13.11
2022-08-04T03:35:59.442Z,13.11
2022-08-04T03:36:59.441Z,13.56
2022-08-04T03:37:59.445Z,13.39
2022-08-04T03:38:59.524Z,13.39
2022-08-04T03:39:59.453Z,13.67
2022-08-04T03:40:59.460Z,13.56
2022-08-04T03:42:03.790Z,13.39
2022-08-04T03:42:59.449Z,13.39
2022-08-04T03:44:00.044Z,13.39
2022-08-04T03:44:59.453Z,13.56
2022-08-04T03:45:59.454Z,13.39
2022-08-04T03:46:59.453Z,13.39
2022-08-04T03:47:59.449Z,12.94
2022-08-04T03:48:59.458Z,13.22
2022-08-04T03:49:59.454Z,13.39
2022-08-04T03:50:59.451Z,12.94
2022-08-04T03:51:59.452Z,12.94
2022-08-04T03:52:59.448Z,12.61
2022-08-04T03:53:59.454Z,12.78
2022-08-04T03:54:59.449Z,12.61
2022-08-04T03:55:59.449Z,13.11
2022-08-04T03:56:59.447Z,13.11
2022-08-04T03:57:59.457Z,12.94
2022-08-04T03:58:59.453Z,12.78
2022-08-04T03:59:59.459Z,12.94
2022-08-04T04:00:59.460Z,12.5
2022-08-04T04:02:01.817Z,12.94
2022-08-04T04:02:59.459Z,12.94
2022-08-04T04:03:59.469Z,12.94
2022-08-04T04:04:59.460Z,13.11
2022-08-04T04:06:00.562Z,12.94
2022-08-04T04:06:59.482Z,13.11
2022-08-04T04:08:01.646Z,13.22
2022-08-04T04:08:59.538Z,13.22
2022-08-04T04:10:05.089Z,12.94
2022-08-04T04:10:59.468Z,13.39
2022-08-04T04:11:59.471Z,13.11
2022-08-04T04:12:59.479Z,13.22
2022-08-04T04:13:59.473Z,13.11
2022-08-04T04:14:59.475Z,13.22
2022-08-04T04:15:59.475Z,12.94
2022-08-04T04:16:59.475Z,12.78
2022-08-04T04:17:59.479Z,13.11
2022-08-04T04:18:59.825Z,13.39
2022-08-04T04:19:59.480Z,13.56
2022-08-04T04:20:59.479Z,13.39
2022-08-04T04:21:59.489Z,13.56
2022-08-04T04:22:59.477Z,13.56
2022-08-04T04:23:59.487Z,13.83
2022-08-04T04:24:59.490Z,13.83
2022-08-04T04:25:59.487Z,13.67
2022-08-04T04:26:59.495Z,13.56
2022-08-04T04:28:43.972Z,13.33
2022-08-04T04:29:03.180Z,13.83
2022-08-04T04:29:59.493Z,13.78
2022-08-04T04:30:59.499Z,13.83
2022-08-04T04:31:59.502Z,13.78
2022-08-04T04:32:59.498Z,13.72
2022-08-04T04:33:59.510Z,14
2022-08-04T04:34:59.508Z,13.83
2022-08-04T04:35:59.509Z,13.78
2022-08-04T04:36:59.509Z,13.78
2022-08-04T04:37:59.506Z,13.83
2022-08-04T04:38:59.542Z,13.83
2022-08-04T04:39:59.545Z,13.56
2022-08-04T04:40:59.520Z,13.39
2022-08-04T04:41:59.518Z,13.39
2022-08-04T04:42:59.532Z,13.33
2022-08-04T04:43:59.521Z,13.56
2022-08-04T04:44:59.524Z,13.39
2022-08-04T04:45:59.526Z,13.44
2022-08-04T04:46:59.521Z,13.56
2022-08-04T04:48:09.300Z,13.39
2022-08-04T04:48:59.522Z,13.33
2022-08-04T04:49:59.526Z,13.33
2022-08-04T04:50:59.541Z,13.28
2022-08-04T04:51:59.523Z,13.39
2022-08-04T04:52:59.532Z,13.28
2022-08-04T04:54:00.310Z,13.33
2022-08-04T04:54:59.536Z,13.39
2022-08-04T04:55:59.537Z,13.39
2022-08-04T04:56:59.535Z,13.44
2022-08-04T04:57:59.535Z,12.89
2022-08-04T04:58:59.539Z,13.33
2022-08-04T04:59:59.542Z,13.39
2022-08-04T05:00:59.541Z,13.17
2022-08-04T05:01:59.542Z,13.28
2022-08-04T05:03:01.159Z,13.33
2022-08-04T05:03:59.548Z,14.06
2022-08-04T05:04:59.538Z,15.89
2022-08-04T05:05:59.541Z,17.78
2022-08-04T05:06:59.547Z,18.78
2022-08-04T05:07:59.542Z,19.72
2022-08-04T05:08:59.548Z,20.22
2022-08-04T05:09:59.545Z,19.94
2022-08-04T05:10:59.550Z,19.94
2022-08-04T05:11:59.550Z,20.22
2022-08-04T05:14:33.839Z,20.22
2022-08-04T05:14:33.849Z,20.22
2022-08-04T05:14:59.547Z,20.33
2022-08-04T05:15:59.552Z,20.72
2022-08-04T05:16:59.552Z,21.17
2022-08-04T05:17:59.549Z,21.5
2022-08-04T05:18:59.559Z,21.5
2022-08-04T05:19:59.555Z,22.06
2022-08-04T05:20:59.566Z,21.72
2022-08-04T05:21:59.551Z,21.17
2022-08-04T05:22:59.564Z,21.72
2022-08-04T05:23:59.565Z,21.39
2022-08-04T05:24:59.577Z,21.72
2022-08-04T05:26:00.173Z,22.39
2022-08-04T05:26:59.568Z,22.56
2022-08-04T05:27:59.562Z,22.22
2022-08-04T05:28:59.571Z,22.22
2022-08-04T05:29:59.570Z,22.22
2022-08-04T05:30:59.570Z,22.56
2022-08-04T05:31:59.582Z,20.72
2022-08-04T05:33:00.060Z,20.06
2022-08-04T05:33:59.576Z,19.72
2022-08-04T05:34:59.571Z,19.72
2022-08-04T05:36:18.133Z,20.72
2022-08-04T05:36:59.570Z,22.22
2022-08-04T05:38:01.094Z,23.28
2022-08-04T05:38:59.637Z,22.78
2022-08-04T05:39:59.571Z,22.78
2022-08-04T05:40:59.604Z,23.28
2022-08-04T05:42:04.736Z,23.11
2022-08-04T05:42:59.588Z,23.11
2022-08-04T05:43:59.600Z,23.28
2022-08-04T05:44:59.620Z,23.28
2022-08-04T05:45:59.594Z,22.39
2022-08-04T05:46:59.584Z,22.39
2022-08-04T05:47:59.585Z,22.22
2022-08-04T05:48:59.580Z,22.94
2022-08-04T05:50:01.753Z,23.28
2022-08-04T05:51:01.084Z,23.83
2022-08-04T05:51:59.601Z,24
2022-08-04T05:53:00.003Z,23.83
2022-08-04T05:53:59.592Z,23.28
2022-08-04T05:54:59.605Z,23.83
2022-08-04T05:56:00.034Z,23.83
2022-08-04T05:56:59.604Z,22.94
2022-08-04T05:57:59.603Z,23.67
2022-08-04T05:58:59.604Z,24.39
2022-08-04T05:59:59.607Z,24.17
2022-08-04T06:00:59.606Z,24.17
2022-08-04T06:01:59.658Z,24
2022-08-04T06:02:59.606Z,24.39
2022-08-04T06:03:59.607Z,23.44
2022-08-04T06:04:59.612Z,24
2022-08-04T06:05:59.603Z,24.56
2022-08-04T06:06:59.610Z,24
2022-08-04T06:08:04.368Z,24.56
2022-08-04T06:08:59.607Z,24.72
2022-08-04T06:09:59.621Z,24.89
2022-08-04T06:10:59.620Z,24.39
2022-08-04T06:12:01.969Z,24
2022-08-04T06:12:59.615Z,24.56
2022-08-04T06:13:59.623Z,24.72
2022-08-04T06:14:59.874Z,23.83
2022-08-04T06:15:59.622Z,23.67
2022-08-04T06:16:59.681Z,23.44
2022-08-04T06:18:32.592Z,24.17
2022-08-04T06:19:58.051Z,24.39
2022-08-04T06:20:18.794Z,25.06
2022-08-04T06:20:59.628Z,25.22
2022-08-04T06:21:59.624Z,25.78
2022-08-04T06:22:59.632Z,26.06
2022-08-04T06:24:04.044Z,25.61
2022-08-04T06:24:59.624Z,25.22
2022-08-04T06:25:59.637Z,24.89
2022-08-04T06:26:59.632Z,25.5
2022-08-04T06:27:59.639Z,25.5
2022-08-04T06:28:59.632Z,24.89
2022-08-04T06:29:59.632Z,25.5
2022-08-04T06:30:59.637Z,26.06
2022-08-04T06:32:29.125Z,25.61
2022-08-04T06:33:03.168Z,26.06
2022-08-04T06:33:59.653Z,25.78
2022-08-04T06:34:59.638Z,26.61
2022-08-04T06:35:59.636Z,26.06
2022-08-04T06:36:59.644Z,26.06
2022-08-04T06:38:01.081Z,27
2022-08-04T06:38:59.694Z,27
2022-08-04T06:39:59.644Z,26.78
2022-08-04T06:40:59.643Z,25.22
2022-08-04T06:42:17.588Z,24.72
2022-08-04T06:42:59.649Z,25.5
2022-08-04T06:43:59.653Z,25.22
2022-08-04T06:44:59.643Z,25.5
2022-08-04T06:45:59.641Z,26.33
2022-08-04T06:46:59.636Z,26.06
2022-08-04T06:47:59.647Z,25.06
2022-08-04T06:48:59.649Z,24.17
2022-08-04T06:51:23.878Z,23.28
2022-08-04T06:51:23.885Z,23.67
2022-08-04T06:51:59.650Z,23.28
2022-08-04T06:52:59.649Z,23.28
2022-08-04T06:53:59.668Z,24.72
2022-08-04T06:54:59.653Z,24.17
2022-08-04T06:55:59.652Z,24.56
2022-08-04T06:56:59.649Z,24
2022-08-04T06:58:03.019Z,24.39
2022-08-04T06:58:59.660Z,24.17
2022-08-04T06:59:59.663Z,25.22
2022-08-04T07:00:59.684Z,24.89
2022-08-04T07:01:59.669Z,24.17
2022-08-04T07:02:59.661Z,24.39
2022-08-04T07:03:59.662Z,24.39
2022-08-04T07:05:01.543Z,23.83
2022-08-04T07:05:59.661Z,23.83
2022-08-04T07:06:59.661Z,23.83
2022-08-04T07:07:59.674Z,23.67
2022-08-04T07:08:59.663Z,24.72
2022-08-04T07:09:59.664Z,23.83
2022-08-04T07:10:59.675Z,23.83
2022-08-04T07:11:59.675Z,24.44
2022-08-04T07:12:59.677Z,25.78
2022-08-04T07:13:59.668Z,26.33
2022-08-04T07:14:59.672Z,24.39
2022-08-04T07:15:59.664Z,24.89
2022-08-04T07:16:59.669Z,25.22
2022-08-04T07:17:59.671Z,25.06
2022-08-04T07:19:09.677Z,26.06
2022-08-04T07:19:59.669Z,25.06
2022-08-04T07:20:59.674Z,26.06
2022-08-04T07:22:16.451Z,25.78
2022-08-04T07:22:59.677Z,26.61
2022-08-04T07:23:59.684Z,26.22
2022-08-04T07:24:59.680Z,27.44
2022-08-04T07:26:11.514Z,26.83
2022-08-04T07:26:59.683Z,26.89
2022-08-04T07:27:59.681Z,27
2022-08-04T07:28:59.689Z,26.72
2022-08-04T07:29:59.687Z,26.89
2022-08-04T07:30:59.679Z,27.5
2022-08-04T07:31:59.685Z,27.44
2022-08-04T07:32:59.690Z,27
2022-08-04T07:34:17.477Z,27.22
2022-08-04T07:34:59.685Z,27.22
2022-08-04T07:36:06.073Z,27.56
2022-08-04T07:36:59.682Z,27.44
2022-08-04T07:37:59.682Z,27.22
2022-08-04T07:38:59.717Z,26.72
2022-08-04T07:39:59.769Z,26.17
2022-08-04T07:40:59.690Z,26.17
2022-08-04T07:42:01.303Z,26.33
2022-08-04T07:42:59.689Z,26.17
2022-08-04T07:43:59.694Z,25.61
2022-08-04T07:44:59.689Z,25.06
2022-08-04T07:45:59.689Z,25.22
2022-08-04T07:46:59.694Z,24.39
2022-08-04T07:48:04.460Z,24
2022-08-04T07:48:59.701Z,24
2022-08-04T07:49:59.703Z,23.44
2022-08-04T07:50:59.690Z,23.67
2022-08-04T07:51:59.691Z,22.94
2022-08-04T07:53:22.623Z,23.11
2022-08-04T07:53:59.701Z,23.44
2022-08-04T07:54:59.701Z,23.83
2022-08-04T07:55:59.702Z,23.44
2022-08-04T07:56:59.708Z,23.44
2022-08-04T07:57:59.705Z,23.44
2022-08-04T07:58:59.705Z,23.44
2022-08-04T07:59:59.702Z,24
2022-08-04T08:00:59.709Z,24.17
2022-08-04T08:01:59.703Z,24
2022-08-04T08:02:59.740Z,24.17
2022-08-04T08:03:59.749Z,24.56
2022-08-04T08:04:59.707Z,24.56
2022-08-04T08:06:18.346Z,24.56
2022-08-04T08:06:59.707Z,24
2022-08-04T08:07:59.720Z,24.39
2022-08-04T08:08:59.711Z,24.17
2022-08-04T08:09:59.719Z,25.06
2022-08-04T08:10:59.715Z,25.06
2022-08-04T08:12:34.678Z,25.06
2022-08-04T08:12:59.711Z,25.22
2022-08-04T08:13:59.716Z,24.89
2022-08-04T08:14:59.722Z,24
2022-08-04T08:15:59.717Z,24.39
2022-08-04T08:16:59.731Z,24.39
2022-08-04T08:18:00.802Z,25.06
2022-08-04T08:18:59.714Z,24.89
2022-08-04T08:19:59.723Z,24.72
2022-08-04T08:20:59.741Z,25.06
2022-08-04T08:22:00.701Z,24.56
2022-08-04T08:22:59.827Z,24.56
2022-08-04T08:23:59.729Z,25.06
2022-08-04T08:24:59.732Z,25.06
2022-08-04T08:25:59.727Z,24.17
2022-08-04T08:26:59.734Z,24.89
2022-08-04T08:27:59.725Z,25.06
2022-08-04T08:28:59.728Z,25.06
2022-08-04T08:29:59.734Z,25.61
2022-08-04T08:30:59.726Z,25.06
2022-08-04T08:32:05.510Z,24.56
2022-08-04T08:32:59.728Z,24
2022-08-04T08:33:59.727Z,23.67
2022-08-04T08:34:59.726Z,24.56
2022-08-04T08:35:59.726Z,24.72
2022-08-04T08:36:59.721Z,25.61
2022-08-04T08:37:59.719Z,25.44
2022-08-04T08:38:59.763Z,25.44
2022-08-04T08:39:59.730Z,24.89
2022-08-04T08:40:59.728Z,25.22
2022-08-04T08:41:59.733Z,24.56
2022-08-04T08:42:59.731Z,24.5
2022-08-04T08:44:00.843Z,24.33
2022-08-04T08:44:59.725Z,25.22
2022-08-04T08:45:59.730Z,24.67
2022-08-04T08:46:59.724Z,24.89
2022-08-04T08:48:05.609Z,24.67
2022-08-04T08:48:59.740Z,24.33
2022-08-04T08:50:01.380Z,24.67
2022-08-04T08:50:59.735Z,25.78
2022-08-04T08:51:59.736Z,26.17
2022-08-04T08:53:02.396Z,26.33
2022-08-04T08:53:59.734Z,26.56
2022-08-04T08:54:59.739Z,26.72
2022-08-04T08:55:59.729Z,26.17
2022-08-04T08:56:59.737Z,25.22
2022-08-04T08:58:00.713Z,25.22
2022-08-04T08:58:59.739Z,25.22
2022-08-04T08:59:59.752Z,25.78
2022-08-04T09:00:59.752Z,26.33
2022-08-04T09:02:00.020Z,26.56
2022-08-04T09:03:03.890Z,26.33
2022-08-04T09:03:59.749Z,26.33
2022-08-04T09:04:59.759Z,26.56
2022-08-04T09:05:59.758Z,25.61
2022-08-04T09:06:59.749Z,25.61
2022-08-04T09:07:59.758Z,26.17
2022-08-04T09:08:59.746Z,25.61
2022-08-04T09:09:59.749Z,25.78
2022-08-04T09:10:59.752Z,25.22
2022-08-04T09:11:59.764Z,24.89
2022-08-04T09:12:59.770Z,24.5
2022-08-04T09:13:59.758Z,24.17
2022-08-04T09:14:59.763Z,24.5
2022-08-04T09:15:59.749Z,24.5
2022-08-04T09:16:59.761Z,25.22
2022-08-04T09:17:59.760Z,25.22
2022-08-04T09:18:59.759Z,25.61
2022-08-04T09:19:59.774Z,25.78
2022-08-04T09:20:59.759Z,25.78
2022-08-04T09:21:59.771Z,25.78
2022-08-04T09:22:59.767Z,25.61
2022-08-04T09:23:59.768Z,25.22
2022-08-04T09:24:59.767Z,25.22
2022-08-04T09:25:59.768Z,25.61
2022-08-04T09:27:00.392Z,25.61
2022-08-04T09:28:02.969Z,25.44
2022-08-04T09:28:59.775Z,25.44
2022-08-04T09:29:59.777Z,25.78
2022-08-04T09:30:59.775Z,25.22
2022-08-04T09:32:06.181Z,25.78
2022-08-04T09:32:59.781Z,26.17
2022-08-04T09:33:59.774Z,26.89
2022-08-04T09:35:01.370Z,26.89
2022-08-04T09:35:59.786Z,26.89
2022-08-04T09:36:59.790Z,25.78
2022-08-04T09:37:59.782Z,25.44
2022-08-04T09:38:59.813Z,25.78
2022-08-04T09:39:59.868Z,25.78
2022-08-04T09:40:59.797Z,25.78
2022-08-04T09:41:59.831Z,25.44
2022-08-04T09:42:59.796Z,26.33
2022-08-04T09:44:43.552Z,26.56
2022-08-04T09:45:05.950Z,26.72
2022-08-04T09:45:59.809Z,26.33
2022-08-04T09:46:59.912Z,26.89
2022-08-04T09:47:59.810Z,26.94
2022-08-04T09:48:59.810Z,27.44
2022-08-04T09:49:59.816Z,27.17
2022-08-04T09:50:59.822Z,26.33
2022-08-04T09:51:59.943Z,26.72
2022-08-04T09:52:59.819Z,26.94
2022-08-04T09:53:59.816Z,26.89
2022-08-04T09:54:59.823Z,27.17
2022-08-04T09:56:02.937Z,26.94
2022-08-04T09:56:59.811Z,27.17
2022-08-04T09:57:59.821Z,26.94
2022-08-04T09:58:59.831Z,26.72
2022-08-04T09:59:59.824Z,26.72
2022-08-04T10:00:59.823Z,26.33
2022-08-04T10:02:00.388Z,26.89
2022-08-04T10:02:59.879Z,26.33
2022-08-04T10:03:59.824Z,26.33
2022-08-04T10:04:59.829Z,26.33
2022-08-04T10:05:59.837Z,26.33
2022-08-04T10:06:59.829Z,26.89
2022-08-04T10:08:10.947Z,27.17
2022-08-04T10:08:59.829Z,27.56
2022-08-04T10:09:59.839Z,27.78
2022-08-04T10:10:59.824Z,27.44
2022-08-04T10:11:59.824Z,26.94
2022-08-04T10:12:59.842Z,26.94
2022-08-04T10:13:59.842Z,27.17
2022-08-04T10:14:59.850Z,27.44
2022-08-04T10:15:59.840Z,26.89
2022-08-04T10:16:59.836Z,26.72
2022-08-04T10:17:59.842Z,26.72
2022-08-04T10:19:00.213Z,26.94
2022-08-04T10:19:59.853Z,27.44
2022-08-04T10:21:04.727Z,27.5
2022-08-04T10:22:27.140Z,28
2022-08-04T10:23:10.939Z,28.39
2022-08-04T10:24:00.269Z,29.11
2022-08-04T10:24:59.859Z,29.11
2022-08-04T10:26:06.776Z,29.94
2022-08-04T10:26:59.864Z,29.72
2022-08-04T10:27:59.860Z,29.72
2022-08-04T10:28:59.860Z,29.94
2022-08-04T10:29:59.869Z,29.72
2022-08-04T10:30:59.875Z,28.94
2022-08-04T10:31:59.876Z,28.72
2022-08-04T10:32:59.869Z,28.11
2022-08-04T10:33:59.906Z,27.72
2022-08-04T10:34:59.875Z,27.5
2022-08-04T10:35:59.883Z,27.94
2022-08-04T10:36:59.884Z,27.5
2022-08-04T10:38:01.941Z,27.5
2022-08-04T10:38:59.956Z,27.5
2022-08-04T10:39:59.915Z,27.5
2022-08-04T10:40:59.895Z,28.11
2022-08-04T10:42:00.032Z,28.72
2022-08-04T10:42:59.886Z,29.33
2022-08-04T10:43:59.882Z,28.72
2022-08-04T10:44:59.882Z,29.17
2022-08-04T10:45:59.884Z,28.72
2022-08-04T10:46:59.895Z,28.56
2022-08-04T10:48:01.412Z,28.56
2022-08-04T10:48:59.893Z,28.11
2022-08-04T10:49:59.899Z,28.11
2022-08-04T10:50:59.890Z,28.11
2022-08-04T10:51:59.973Z,28.33
2022-08-04T10:52:59.900Z,28.56
2022-08-04T10:53:59.904Z,28.94
2022-08-04T10:54:59.893Z,29.17
2022-08-04T10:56:05.826Z,29.33
2022-08-04T10:56:59.903Z,29.33
2022-08-04T10:57:59.911Z,29.72
2022-08-04T10:58:59.905Z,30.17
2022-08-04T11:00:00.716Z,29.94
2022-08-04T11:00:59.896Z,29.72
2022-08-04T11:02:03.208Z,29.94
2022-08-04T11:02:59.953Z,30.56
2022-08-04T11:03:59.902Z,31.33
2022-08-04T11:04:59.898Z,30.94
2022-08-04T11:05:59.914Z,31.17
2022-08-04T11:06:59.913Z,30.56
2022-08-04T11:07:59.910Z,30.56
2022-08-04T11:08:59.904Z,30.56
2022-08-04T11:09:59.907Z,31.17
2022-08-04T11:10:59.911Z,31.78
2022-08-04T11:12:01.911Z,32.44
2022-08-04T11:12:59.916Z,31.56
2022-08-04T11:13:59.911Z,31.33
2022-08-04T11:14:59.922Z,31.56
2022-08-04T11:15:59.917Z,31.17
2022-08-04T11:16:59.921Z,31.17
2022-08-04T11:17:59.930Z,31.33
2022-08-04T11:18:59.925Z,30.56
2022-08-04T11:20:12.596Z,30.33
2022-08-04T11:20:59.920Z,29.94
2022-08-04T11:21:59.920Z,29.94
2022-08-04T11:22:59.915Z,30.56
2022-08-04T11:23:59.914Z,30.56
2022-08-04T11:24:59.923Z,29.94
2022-08-04T11:25:59.928Z,30.17
2022-08-04T11:26:59.928Z,30.56
2022-08-04T11:27:59.934Z,30.56
2022-08-04T11:29:03.513Z,30.94
2022-08-04T11:29:59.930Z,31.17
2022-08-04T11:30:59.931Z,30.56
2022-08-04T11:31:59.931Z,30.56
2022-08-04T11:32:59.931Z,31.17
2022-08-04T11:33:59.931Z,30.94
2022-08-04T11:34:59.933Z,30.56
2022-08-04T11:35:59.928Z,30.33
2022-08-04T11:36:59.941Z,30.89
2022-08-04T11:37:59.940Z,30.28
2022-08-04T11:38:59.970Z,30.11
2022-08-04T11:39:59.945Z,31.11
2022-08-04T11:41:02.373Z,30.72
2022-08-04T11:41:59.943Z,30.72
2022-08-04T11:42:59.945Z,30.72
2022-08-04T11:44:03.007Z,30.11
2022-08-04T11:44:59.948Z,30.5
2022-08-04T11:45:59.944Z,30.5
2022-08-04T11:46:59.960Z,30.72
2022-08-04T11:47:59.954Z,30.89
2022-08-04T11:48:59.955Z,31.11
2022-08-04T11:49:59.946Z,30.72
2022-08-04T11:50:59.964Z,30.72
2022-08-04T11:51:59.956Z,31.94
2022-08-04T11:52:59.965Z,31.72
2022-08-04T11:53:59.964Z,31.94
2022-08-04T11:54:59.965Z,31.94
2022-08-04T11:56:07.233Z,33.28
2022-08-04T11:56:59.966Z,33.72
2022-08-04T11:57:59.964Z,34.11
2022-08-04T11:58:59.964Z,33.89
2022-08-04T12:00:04.086Z,33.89
2022-08-04T12:00:59.969Z,33.89
2022-08-04T12:01:59.998Z,33.89
2022-08-04T12:02:59.972Z,33.28
2022-08-04T12:04:04.063Z,32.61
2022-08-04T12:04:59.968Z,32.78
2022-08-04T12:05:59.967Z,32.61
2022-08-04T12:07:21.605Z,33
2022-08-04T12:07:59.965Z,32.61
2022-08-04T12:08:59.987Z,33.28
2022-08-04T12:09:59.976Z,34.11
2022-08-04T12:10:59.980Z,34.56
2022-08-04T12:11:59.976Z,33.89
2022-08-04T12:12:59.982Z,33.72
2022-08-04T12:14:00.808Z,33.89
2022-08-04T12:14:59.990Z,34.56
2022-08-04T12:15:59.985Z,35.06
2022-08-04T12:16:59.978Z,34.56
2022-08-04T12:18:00.009Z,34.11
2022-08-04T12:18:59.985Z,32.61
2022-08-04T12:20:04.715Z,33.28
2022-08-04T12:20:59.987Z,31.94
2022-08-04T12:21:59.988Z,31.5
2022-08-04T12:22:59.994Z,31.11
2022-08-04T12:24:00.541Z,31.11
2022-08-04T12:24:59.991Z,31.33
2022-08-04T12:25:59.988Z,31.5
2022-08-04T12:26:59.994Z,31.33
2022-08-04T12:27:59.993Z,30.89
2022-08-04T12:29:09.886Z,31.11
2022-08-04T12:30:56.349Z,31.72
2022-08-04T12:31:04.203Z,32.61
2022-08-04T12:31:59.998Z,33.44
2022-08-04T12:32:59.996Z,34.39
2022-08-04T12:34:03.975Z,35.56
2022-08-04T12:34:59.993Z,36.06
2022-08-04T12:36:10.715Z,35.72
2022-08-04T12:37:00.011Z,35.22
2022-08-04T12:38:00.001Z,33.89
2022-08-04T12:39:00.052Z,33.89
2022-08-04T12:40:21.465Z,32.39
2022-08-04T12:41:00.006Z,33
2022-08-04T12:42:00.010Z,33.28
2022-08-04T12:43:00.260Z,32.61
2022-08-04T12:44:00.007Z,33.72
2022-08-04T12:45:00.022Z,33.33
2022-08-04T12:46:00.004Z,33.33
2022-08-04T12:47:26.031Z,33.33
2022-08-04T12:48:00.015Z,32.94
2022-08-04T12:49:00.013Z,32.56
2022-08-04T12:50:01.615Z,33.22
2022-08-04T12:51:00.016Z,32.78
2022-08-04T12:52:07.152Z,33.22
2022-08-04T12:53:02.933Z,32.78
2022-08-04T12:54:00.029Z,33.22
2022-08-04T12:55:00.019Z,33.39
2022-08-04T12:56:01.263Z,34.06
2022-08-04T12:57:00.022Z,33.39